Observation data for Gail on 11/14/2017      Previous  Date  Next       Current Mesonet Observations  Soil Data  Daily Summary Page  Observations in Plain Language
KGGS 140605Z 16006KT 15/14 A3016 RMK A01 T01470135  RH  096%=      5-min Rain = 0
KGGS 140610Z 15005KT 15/14 A3015 RMK A01 T01480135  RH  096%=      5-min Rain = 0
KGGS 140615Z 16006KT 15/14 A3015 RMK A01 T01490136  RH  096%=      5-min Rain = 0
KGGS 140620Z 16005KT 15/14 A3015 RMK A01 T01500137  RH  096%=      5-min Rain = 0
KGGS 140625Z 17006KT 15/14 A3015 RMK A01 T01510138  RH  096%=      5-min Rain = 0
KGGS 140630Z 16007KT 15/14 A3015 RMK A01 T01510137  RH  096%=      5-min Rain = 0
KGGS 140635Z 16007KT 15/14 A3015 RMK A01 T01510137  RH  096%=      5-min Rain = 0
KGGS 140640Z 16007KT 15/14 A3014 RMK A01 T01510138  RH  096%=      5-min Rain = 0
KGGS 140645Z 15008KT 15/14 A3014 RMK A01 T01510138  RH  096%=      5-min Rain = 0
KGGS 140650Z 15007KT 15/14 A3014 RMK A01 T01520138  RH  096%=      5-min Rain = 0
KGGS 140655Z 15007KT 15/14 A3014 RMK A01 T01510138  RH  096%=      5-min Rain = 0
KGGS 140700Z 14006KT 15/14 A3014 RMK A01 T01510138  RH  096%=      5-min Rain = 0
KGGS 140705Z 14005KT 15/14 A3014 RMK A01 T01510138  RH  096%=      5-min Rain = 0
KGGS 140710Z 14005KT 15/14 A3014 RMK A01 T01510138  RH  096%=      5-min Rain = 0
KGGS 140715Z 14006KT 15/14 A3014 RMK A01 T01510138  RH  096%=      5-min Rain = 0
KGGS 140720Z 14006KT 15/14 A3014 RMK A01 T01510138  RH  096%=      5-min Rain = 0
KGGS 140725Z 14007KT 15/14 A3013 RMK A01 T01510138  RH  096%=      5-min Rain = 0
KGGS 140730Z 14006KT 15/14 A3013 RMK A01 T01510138  RH  096%=      5-min Rain = 0
KGGS 140735Z 15006KT 15/14 A3013 RMK A01 T01510138  RH  096%=      5-min Rain = 0
KGGS 140740Z 15005KT 15/14 A3013 RMK A01 T01520139  RH  096%=      5-min Rain = 0
KGGS 140745Z 15005KT 15/14 A3013 RMK A01 T01520139  RH  096%=      5-min Rain = 0
KGGS 140750Z 15005KT 15/14 A3013 RMK A01 T01520139  RH  096%=      5-min Rain = 0
KGGS 140755Z 15005KT 15/14 A3013 RMK A01 T01520139  RH  096%=      5-min Rain = 0
KGGS 140800Z 14004KT 15/14 A3013 RMK A01 T01520139  RH  096%=      5-min Rain = 0
KGGS 140805Z 14003KT 15/14 A3013 RMK A01 T01520139  RH  096%=      5-min Rain = 0
KGGS 140810Z 14003KT 15/14 A3013 RMK A01 T01530139  RH  096%=      5-min Rain = 0
KGGS 140815Z 14003KT 15/14 A3013 RMK A01 T01530139  RH  096%=      5-min Rain = 0
KGGS 140820Z 14004KT 15/14 A3013 RMK A01 T01530139  RH  096%=      5-min Rain = 0
KGGS 140825Z 14003KT 15/14 A3012 RMK A01 T01530139  RH  096%=      5-min Rain = 0
KGGS 140830Z 15003KT 15/14 A3012 RMK A01 T01530139  RH  096%=      5-min Rain = 0
KGGS 140835Z 15003KT 15/14 A3012 RMK A01 T01520139  RH  096%=      5-min Rain = 0
KGGS 140840Z 15003KT 15/14 A3012 RMK A01 T01520139  RH  096%=      5-min Rain = 0
KGGS 140845Z 15004KT 15/14 A3012 RMK A01 T01530139  RH  096%=      5-min Rain = 0
KGGS 140850Z 17003KT 15/14 A3012 RMK A01 T01530140  RH  096%=      5-min Rain = 0
KGGS 140855Z 17004KT 15/14 A3012 RMK A01 T01530140  RH  096%=      5-min Rain = 0
KGGS 140900Z 17003KT 15/14 A3012 RMK A01 T01530140  RH  096%=      5-min Rain = 0
KGGS 140905Z 18003KT 15/14 A3012 RMK A01 T01530140  RH  096%=      5-min Rain = 0
KGGS 140910Z 18003KT 15/14 A3012 RMK A01 T01530140  RH  096%=      5-min Rain = 0
KGGS 140915Z 17003KT 15/14 A3012 RMK A01 T01530140  RH  096%=      5-min Rain = 0
KGGS 140920Z 17002KT 15/14 A3012 RMK A01 T01530140  RH  095%=      5-min Rain = 0
KGGS 140925Z 18002KT 15/14 A3012 RMK A01 T01530140  RH  095%=      5-min Rain = 0
KGGS 140930Z 17003KT 15/14 A3012 RMK A01 T01530140  RH  095%=      5-min Rain = 0
KGGS 140935Z 16003KT 15/14 A3011 RMK A01 T01530140  RH  095%=      5-min Rain = 0
KGGS 140940Z 16003KT 15/14 A3011 RMK A01 T01530139  RH  095%=      5-min Rain = 0
KGGS 140945Z 15003KT 15/14 A3011 RMK A01 T01540140  RH  095%=      5-min Rain = 0
KGGS 140950Z 15003KT 15/14 A3011 RMK A01 T01540140  RH  095%=      5-min Rain = 0
KGGS 140955Z 15003KT 15/14 A3011 RMK A01 T01540140  RH  095%=      5-min Rain = 0
KGGS 141000Z 16003KT 15/14 A3011 RMK A01 T01540140  RH  095%=      5-min Rain = 0
KGGS 141005Z 16004KT 16/14 A301 RMK A01 T01550141  RH  095%=      5-min Rain = 0
KGGS 141010Z 17004KT 16/14 A301 RMK A01 T01550141  RH  095%=      5-min Rain = 0
KGGS 141015Z 17003KT 16/14 A301 RMK A01 T01550141  RH  095%=      5-min Rain = 0
KGGS 141020Z 18003KT 16/14 A301 RMK A01 T01550141  RH  095%=      5-min Rain = 0
KGGS 141025Z 18003KT 16/14 A301 RMK A01 T01550141  RH  095%=      5-min Rain = 0
KGGS 141030Z 18004KT 16/14 A301 RMK A01 T01560141  RH  095%=      5-min Rain = 0
KGGS 141035Z 17003KT 16/14 A301 RMK A01 T01560141  RH  095%=      5-min Rain = 0
KGGS 141040Z 18002KT 16/14 A301 RMK A01 T01560141  RH  095%=      5-min Rain = 0
KGGS 141045Z 17002KT 16/14 A301 RMK A01 T01560141  RH  095%=      5-min Rain = 0
KGGS 141050Z 17003KT 16/14 A301 RMK A01 T01560141  RH  095%=      5-min Rain = 0
KGGS 141055Z 17004KT 16/14 A301 RMK A01 T01560141  RH  095%=      5-min Rain = 0
KGGS 141100Z 18003KT 16/14 A301 RMK A01 T01560141  RH  095%=      5-min Rain = 0
KGGS 141105Z 19004KT 16/14 A3009 RMK A01 T01560141  RH  095%=      5-min Rain = 0
KGGS 141110Z 18004KT 16/14 A3009 RMK A01 T01560141  RH  095%=      5-min Rain = 0
KGGS 141115Z 18004KT 16/14 A3009 RMK A01 T01560141  RH  095%=      5-min Rain = 0
KGGS 141120Z 18003KT 16/14 A301 RMK A01 T01570141  RH  094%=      5-min Rain = 0
KGGS 141125Z 18002KT 16/14 A301 RMK A01 T01570142  RH  094%=      5-min Rain = 0
KGGS 141130Z 18002KT 16/14 A301 RMK A01 T01580142  RH  094%=      5-min Rain = 0
KGGS 141135Z 18002KT 16/14 A301 RMK A01 T01580142  RH  094%=      5-min Rain = 0
KGGS 141140Z 18002KT 16/14 A301 RMK A01 T01580141  RH  094%=      5-min Rain = 0
KGGS 141145Z 18003KT 16/14 A301 RMK A01 T01580141  RH  094%=      5-min Rain = 0
KGGS 141150Z 18004KT 16/14 A3009 RMK A01 T01570141  RH  094%=      5-min Rain = 0
KGGS 141155Z 18003KT 16/14 A3009 RMK A01 T01580141  RH  094%=      5-min Rain = 0
KGGS 141200Z 18004KT 16/14 A3009 RMK A01 T01580141  RH  094%=      5-min Rain = 0
KGGS 141205Z 18004KT 16/14 A3009 RMK A01 T01580141  RH  093%=      5-min Rain = 0
KGGS 141210Z 18005KT 16/14 A3009 RMK A01 T01590141  RH  093%=      5-min Rain = 0
KGGS 141215Z 18006KT 16/14 A3009 RMK A01 T01590141  RH  093%=      5-min Rain = 0
KGGS 141220Z 18005KT 16/14 A3009 RMK A01 T01590141  RH  093%=      5-min Rain = 0
KGGS 141225Z 18005KT 16/14 A3009 RMK A01 T01600141  RH  093%=      5-min Rain = 0
KGGS 141230Z 17006KT 16/14 A3009 RMK A01 T01600141  RH  092%=      5-min Rain = 0
KGGS 141235Z 19008KT 16/14 A3009 RMK A01 T01610141  RH  092%=      5-min Rain = 0
KGGS 141240Z 19007KT 16/14 A3008 RMK A01 T01630141  RH  091%=      5-min Rain = 0
KGGS 141245Z 19007KT 16/14 A3008 RMK A01 T01620140  RH  090%=      5-min Rain = 0
KGGS 141250Z 19008KT 16/14 A3009 RMK A01 T01630140  RH  090%=      5-min Rain = 0
KGGS 141255Z 19006KT 16/14 A3009 RMK A01 T01630140  RH  090%=      5-min Rain = 0
KGGS 141300Z 19005KT 16/14 A3009 RMK A01 T01630140  RH  090%=      5-min Rain = 0
KGGS 141305Z 19005KT 16/14 A3009 RMK A01 T01620140  RH  090%=      5-min Rain = 0
KGGS 141310Z 20006KT 16/14 A3009 RMK A01 T01620140  RH  090%=      5-min Rain = 0
KGGS 141315Z 20006KT 16/14 A3009 RMK A01 T01630140  RH  090%=      5-min Rain = 0
KGGS 141320Z 20006KT 16/14 A301 RMK A01 T01630140  RH  090%=      5-min Rain = 0
KGGS 141325Z 19007KT 16/14 A301 RMK A01 T01630139  RH  089%=      5-min Rain = 0
KGGS 141330Z 20007KT 16/14 A301 RMK A01 T01640139  RH  089%=      5-min Rain = 0
KGGS 141335Z 21006KT 16/14 A301 RMK A01 T01640139  RH  089%=      5-min Rain = 0
KGGS 141340Z 21006KT 16/14 A301 RMK A01 T01640138  RH  088%=      5-min Rain = 0
KGGS 141345Z 21007KT 16/14 A301 RMK A01 T01640138  RH  088%=      5-min Rain = 0
KGGS 141350Z 21007KT 17/14 A301 RMK A01 T01650138  RH  088%=      5-min Rain = 0
KGGS 141355Z 21006KT 17/14 A301 RMK A01 T01650138  RH  088%=      5-min Rain = 0
KGGS 141400Z 21006KT 17/14 A301 RMK A01 T01650138  RH  088%=      5-min Rain = 0
KGGS 141405Z 21006KT 17/14 A3011 RMK A01 T01650138  RH  087%=      5-min Rain = 0
KGGS 141410Z 21006KT 17/14 A3011 RMK A01 T01660138  RH  087%=      5-min Rain = 0
KGGS 141415Z 21005KT 17/14 A3011 RMK A01 T01660138  RH  087%=      5-min Rain = 0
KGGS 141420Z 21005KT 17/14 A3011 RMK A01 T01660138  RH  087%=      5-min Rain = 0
KGGS 141425Z 21005KT 17/14 A3011 RMK A01 T01670139  RH  087%=      5-min Rain = 0
KGGS 141430Z 21006KT 17/14 A3011 RMK A01 T01670138  RH  087%=      5-min Rain = 0
KGGS 141435Z 20006KT 17/14 A3011 RMK A01 T01670138  RH  086%=      5-min Rain = 0
KGGS 141440Z 21005KT 17/14 A3011 RMK A01 T01680138  RH  086%=      5-min Rain = 0
KGGS 141445Z 21006KT 17/14 A3011 RMK A01 T01680138  RH  086%=      5-min Rain = 0
KGGS 141450Z 21007KT 17/14 A3011 RMK A01 T01690137  RH  085%=      5-min Rain = 0
KGGS 141455Z 21006KT 17/14 A3011 RMK A01 T01700137  RH  084%=      5-min Rain = 0
KGGS 141500Z 21006KT 17/14 A3011 RMK A01 T01710137  RH  084%=      5-min Rain = 0
KGGS 141505Z 21007KT 17/14 A3011 RMK A01 T01720136  RH  083%=      5-min Rain = 0
KGGS 141510Z 21008G13KT 17/14 A3011 RMK A01 T01720136  RH  083%=      5-min Rain = 0
KGGS 141515Z 21008KT 17/14 A3011 RMK A01 T01740137  RH  082%=      5-min Rain = 0
KGGS 141520Z 22008KT 17/14 A3011 RMK A01 T01740136  RH  081%=      5-min Rain = 0
KGGS 141525Z 22009KT 17/14 A3011 RMK A01 T01740135  RH  081%=      5-min Rain = 0
KGGS 141530Z 22009KT 17/14 A3011 RMK A01 T01740135  RH  081%=      5-min Rain = 0
KGGS 141535Z 22010KT 18/14 A3011 RMK A01 T01750135  RH  081%=      5-min Rain = 0
KGGS 141540Z 21012KT 18/13 A3011 RMK A01 T01750133  RH  080%=      5-min Rain = 0
KGGS 141545Z 21012KT 18/13 A3011 RMK A01 T01750133  RH  080%=      5-min Rain = 0
KGGS 141550Z 21012KT 18/13 A3011 RMK A01 T01750133  RH  080%=      5-min Rain = 0
KGGS 141555Z 22012KT 18/13 A3011 RMK A01 T01750133  RH  079%=      5-min Rain = 0
KGGS 141600Z 22009KT 18/13 A3011 RMK A01 T01760133  RH  079%=      5-min Rain = 0
KGGS 141605Z 22010KT 18/13 A3011 RMK A01 T01770134  RH  079%=      5-min Rain = 0
KGGS 141610Z 22011KT 18/13 A3011 RMK A01 T01780134  RH  079%=      5-min Rain = 0
KGGS 141615Z 22011KT 18/13 A3011 RMK A01 T01780134  RH  078%=      5-min Rain = 0
KGGS 141620Z 22011KT 18/13 A3011 RMK A01 T01790134  RH  078%=      5-min Rain = 0
KGGS 141625Z 22010G15KT 18/13 A3011 RMK A01 T01800134  RH  078%=      5-min Rain = 0
KGGS 141630Z 21010KT 18/14 A301 RMK A01 T01820135  RH  077%=      5-min Rain = 0
KGGS 141635Z 21010KT 18/14 A301 RMK A01 T01830136  RH  077%=      5-min Rain = 0
KGGS 141640Z 20011KT 18/14 A301 RMK A01 T01830135  RH  077%=      5-min Rain = 0
KGGS 141645Z 21010KT 18/14 A301 RMK A01 T01830135  RH  077%=      5-min Rain = 0
KGGS 141650Z 21012KT 18/13 A301 RMK A01 T01820133  RH  076%=      5-min Rain = 0
KGGS 141655Z 21010KT 18/13 A301 RMK A01 T01830134  RH  076%=      5-min Rain = 0
KGGS 141700Z 20010G15KT 18/14 A301 RMK A01 T01840135  RH  076%=      5-min Rain = 0
KGGS 141705Z 20010G15KT 18/14 A301 RMK A01 T01840135  RH  076%=      5-min Rain = 0
KGGS 141710Z 21011KT 18/13 A301 RMK A01 T01840134  RH  075%=      5-min Rain = 0
KGGS 141715Z 20009KT 18/13 A3009 RMK A01 T01840133  RH  076%=      5-min Rain = 0
KGGS 141720Z 20011KT 18/13 A3009 RMK A01 T01840134  RH  076%=      5-min Rain = 0
KGGS 141725Z 20010KT 19/13 A3009 RMK A01 T01850134  RH  075%=      5-min Rain = 0
KGGS 141730Z 21010KT 19/13 A3008 RMK A01 T01880134  RH  074%=      5-min Rain = 0
KGGS 141735Z 20011KT 19/13 A3008 RMK A01 T01870134  RH  074%=      5-min Rain = 0
KGGS 141740Z 20010KT 19/14 A3008 RMK A01 T01880135  RH  074%=      5-min Rain = 0
KGGS 141745Z 21009KT 19/13 A3008 RMK A01 T01910134  RH  072%=      5-min Rain = 0
KGGS 141750Z 21010KT 19/13 A3007 RMK A01 T01910133  RH  072%=      5-min Rain = 0
KGGS 141755Z 20011KT 19/13 A3007 RMK A01 T01900132  RH  072%=      5-min Rain = 0
KGGS 141800Z 21011KT 19/13 A3006 RMK A01 T01900132  RH  072%=      5-min Rain = 0
KGGS 141805Z 21012KT 19/13 A3006 RMK A01 T01920133  RH  071%=      5-min Rain = 0
KGGS 141810Z 20011KT 19/13 A3005 RMK A01 T01930133  RH  071%=      5-min Rain = 0
KGGS 141815Z 20011KT 20/13 A3005 RMK A01 T01960134  RH  070%=      5-min Rain = 0
KGGS 141820Z 20011KT 20/13 A3004 RMK A01 T01970134  RH  070%=      5-min Rain = 0
KGGS 141825Z 22010G15KT 20/13 A3004 RMK A01 T01980133  RH  069%=      5-min Rain = 0
KGGS 141830Z 22010KT 20/13 A3004 RMK A01 T02030134  RH  067%=      5-min Rain = 0
KGGS 141835Z 22011KT 21/14 A3003 RMK A01 T02070135  RH  066%=      5-min Rain = 0
KGGS 141840Z 23008G13KT 21/14 A3003 RMK A01 T02080135  RH  065%=      5-min Rain = 0
KGGS 141845Z 22009G14KT 21/14 A3002 RMK A01 T02110136  RH  065%=      5-min Rain = 0
KGGS 141850Z 21010KT 21/14 A3002 RMK A01 T02140136  RH  064%=      5-min Rain = 0
KGGS 141855Z 22010KT 22/14 A3001 RMK A01 T02170136  RH  063%=      5-min Rain = 0
KGGS 141900Z 21008KT 22/14 A3001 RMK A01 T02170136  RH  062%=      5-min Rain = 0
KGGS 141905Z 20011KT 22/14 A3001 RMK A01 T02180136  RH  062%=      5-min Rain = 0
KGGS 141910Z 21008G14KT 22/14 A3001 RMK A01 T02220137  RH  061%=      5-min Rain = 0
KGGS 141915Z 20008KT 22/14 A30 RMK A01 T02230137  RH  060%=      5-min Rain = 0
KGGS 141920Z 21009KT 23/14 A30 RMK A01 T02270137  RH  059%=      5-min Rain = 0
KGGS 141925Z 21011G16KT 23/14 A30 RMK A01 T02290137  RH  058%=      5-min Rain = 0
KGGS 141930Z 20010G15KT 23/14 A30 RMK A01 T02290138  RH  059%=      5-min Rain = 0
KGGS 141935Z 21010G16KT 24/14 A2999 RMK A01 T02360139  RH  057%=      5-min Rain = 0
KGGS 141940Z 22010G16KT 23/14 A2999 RMK A01 T02320138  RH  058%=      5-min Rain = 0
KGGS 141945Z 20009KT 24/14 A2999 RMK A01 T02350138  RH  057%=      5-min Rain = 0
KGGS 141950Z 21009G15KT 24/14 A2998 RMK A01 T02370138  RH  056%=      5-min Rain = 0
KGGS 141955Z 23008KT 24/14 A2998 RMK A01 T02380138  RH  056%=      5-min Rain = 0
KGGS 142000Z 21009KT 24/14 A2998 RMK A01 T02410139  RH  055%=      5-min Rain = 0
KGGS 142005Z 22008G13KT 24/14 A2998 RMK A01 T02420137  RH  054%=      5-min Rain = 0
KGGS 142010Z 20010KT 25/14 A2997 RMK A01 T02450137  RH  053%=      5-min Rain = 0
KGGS 142015Z 20010G15KT 24/14 A2997 RMK A01 T02440139  RH  054%=      5-min Rain = 0
KGGS 142020Z 21011KT 25/14 A2997 RMK A01 T02450137  RH  053%=      5-min Rain = 0
KGGS 142025Z 20009G15KT 24/14 A2997 RMK A01 T02440137  RH  054%=      5-min Rain = 0
KGGS 142030Z 22008KT 25/14 A2996 RMK A01 T02470136  RH  052%=      5-min Rain = 0
KGGS 142035Z 22008G13KT 25/14 A2996 RMK A01 T02510137  RH  051%=      5-min Rain = 0
KGGS 142040Z 23011KT 25/13 A2996 RMK A01 T02500133  RH  050%=      5-min Rain = 0
KGGS 142045Z 22011KT 25/13 A2996 RMK A01 T02500132  RH  050%=      5-min Rain = 0
KGGS 142050Z 22009G15KT 25/13 A2995 RMK A01 T02500132  RH  050%=      5-min Rain = 0
KGGS 142055Z 22010KT 25/13 A2995 RMK A01 T02520132  RH  049%=      5-min Rain = 0
KGGS 142100Z 22010G15KT 25/13 A2995 RMK A01 T02520131  RH  049%=      5-min Rain = 0
KGGS 142105Z 22010G17KT 25/13 A2995 RMK A01 T02530130  RH  048%=      5-min Rain = 0
KGGS 142110Z 22010KT 26/13 A2994 RMK A01 T02560131  RH  048%=      5-min Rain = 0
KGGS 142115Z 22010G16KT 25/13 A2994 RMK A01 T02540128  RH  048%=      5-min Rain = 0
KGGS 142120Z 23011KT 26/13 A2994 RMK A01 T02560127  RH  046%=      5-min Rain = 0
KGGS 142125Z 21011KT 25/13 A2994 RMK A01 T02530126  RH  047%=      5-min Rain = 0
KGGS 142130Z 22011G16KT 25/13 A2994 RMK A01 T02540126  RH  047%=      5-min Rain = 0
KGGS 142135Z 22009KT 26/13 A2994 RMK A01 T02560126  RH  046%=      5-min Rain = 0
KGGS 142140Z 23009KT 26/13 A2993 RMK A01 T02570126  RH  046%=      5-min Rain = 0
KGGS 142145Z 22009KT 26/13 A2993 RMK A01 T02570126  RH  046%=      5-min Rain = 0
KGGS 142150Z 23010KT 26/12 A2993 RMK A01 T02570122  RH  045%=      5-min Rain = 0
KGGS 142155Z 23009KT 26/13 A2993 RMK A01 T02560125  RH  046%=      5-min Rain = 0
KGGS 142200Z 20010KT 26/13 A2993 RMK A01 T02580125  RH  045%=      5-min Rain = 0
KGGS 142205Z 21011G17KT 26/12 A2993 RMK A01 T02570123  RH  045%=      5-min Rain = 0
KGGS 142210Z 23010KT 26/12 A2993 RMK A01 T02570120  RH  044%=      5-min Rain = 0
KGGS 142215Z 22008KT 26/12 A2993 RMK A01 T02590122  RH  044%=      5-min Rain = 0
KGGS 142220Z 20009KT 26/12 A2992 RMK A01 T02590121  RH  044%=      5-min Rain = 0
KGGS 142225Z 20009KT 26/12 A2992 RMK A01 T02580121  RH  044%=      5-min Rain = 0
KGGS 142230Z 20011KT 26/12 A2992 RMK A01 T02560120  RH  044%=      5-min Rain = 0
KGGS 142235Z 21009KT 26/12 A2992 RMK A01 T02550121  RH  045%=      5-min Rain = 0
KGGS 142240Z 20009KT 26/12 A2992 RMK A01 T02560121  RH  045%=      5-min Rain = 0
KGGS 142245Z 20009KT 26/12 A2992 RMK A01 T02550120  RH  045%=      5-min Rain = 0
KGGS 142250Z 21008KT 25/12 A2992 RMK A01 T02540119  RH  045%=      5-min Rain = 0
KGGS 142255Z 21009KT 25/12 A2992 RMK A01 T02530119  RH  045%=      5-min Rain = 0
KGGS 142300Z 20007KT 25/12 A2991 RMK A01 T02510120  RH  046%=      5-min Rain = 0
KGGS 142305Z 20008KT 25/12 A2991 RMK A01 T02500119  RH  046%=      5-min Rain = 0
KGGS 142310Z 19007KT 25/12 A2991 RMK A01 T02480118  RH  046%=      5-min Rain = 0
KGGS 142315Z 19006KT 25/12 A2991 RMK A01 T02460119  RH  047%=      5-min Rain = 0
KGGS 142320Z 19005KT 24/12 A2991 RMK A01 T02420120  RH  048%=      5-min Rain = 0
KGGS 142325Z 19006KT 24/12 A2991 RMK A01 T02390120  RH  049%=      5-min Rain = 0
KGGS 142330Z 18005KT 23/12 A2991 RMK A01 T02340119  RH  050%=      5-min Rain = 0
KGGS 142335Z 18005KT 23/12 A2991 RMK A01 T02290119  RH  052%=      5-min Rain = 0
KGGS 142340Z 17006KT 22/12 A2991 RMK A01 T02220118  RH  054%=      5-min Rain = 0
KGGS 142345Z 17006KT 22/12 A299 RMK A01 T02150118  RH  056%=      5-min Rain = 0
KGGS 142350Z 18006KT 21/12 A299 RMK A01 T02080117  RH  058%=      5-min Rain = 0
KGGS 142355Z 18007KT 20/12 A299 RMK A01 T02040116  RH  059%=      5-min Rain = 0
KGGS 150000Z 18007KT 20/12 A299 RMK A01 T02020116  RH  060%=      5-min Rain = 0
KGGS 150005Z 18006KT 20/12 A299 RMK A01 T02010115  RH  060%=      5-min Rain = 0
KGGS 150010Z 18007KT 20/12 A299 RMK A01 T01990115  RH  061%=      5-min Rain = 0
KGGS 150015Z 18007KT 20/12 A299 RMK A01 T01990115  RH  061%=      5-min Rain = 0
KGGS 150020Z 18007KT 20/12 A299 RMK A01 T01980115  RH  061%=      5-min Rain = 0
KGGS 150025Z 17006KT 20/11 A299 RMK A01 T01960114  RH  061%=      5-min Rain = 0
KGGS 150030Z 17006KT 19/11 A299 RMK A01 T01930114  RH  062%=      5-min Rain = 0
KGGS 150035Z 17007KT 19/11 A299 RMK A01 T01900113  RH  063%=      5-min Rain = 0
KGGS 150040Z 17008KT 19/11 A299 RMK A01 T01900112  RH  063%=      5-min Rain = 0
KGGS 150045Z 16008KT 19/11 A299 RMK A01 T01930113  RH  062%=      5-min Rain = 0
KGGS 150050Z 17008KT 20/12 A299 RMK A01 T01950115  RH  062%=      5-min Rain = 0
KGGS 150055Z 17008KT 19/12 A299 RMK A01 T01940118  RH  064%=      5-min Rain = 0
KGGS 150100Z 17008KT 19/12 A299 RMK A01 T01930120  RH  065%=      5-min Rain = 0
KGGS 150105Z 17008KT 19/12 A299 RMK A01 T01930121  RH  065%=      5-min Rain = 0
KGGS 150110Z 17008KT 19/12 A299 RMK A01 T01930122  RH  066%=      5-min Rain = 0
KGGS 150115Z 17007KT 19/12 A299 RMK A01 T01920123  RH  066%=      5-min Rain = 0
KGGS 150120Z 17007KT 19/12 A299 RMK A01 T01920123  RH  067%=      5-min Rain = 0
KGGS 150125Z 18007KT 19/12 A2991 RMK A01 T01890123  RH  068%=      5-min Rain = 0
KGGS 150130Z 18006KT 18/12 A2991 RMK A01 T01840121  RH  069%=      5-min Rain = 0
KGGS 150135Z 18006KT 18/12 A2991 RMK A01 T01760118  RH  072%=      5-min Rain = 0
KGGS 150140Z 19007KT 17/12 A2991 RMK A01 T01710119  RH  074%=      5-min Rain = 0
KGGS 150145Z 19007KT 17/12 A2991 RMK A01 T01690119  RH  075%=      5-min Rain = 0
KGGS 150150Z 18007KT 17/12 A2991 RMK A01 T01660119  RH  076%=      5-min Rain = 0
KGGS 150155Z 18007KT 16/12 A2991 RMK A01 T01640119  RH  078%=      5-min Rain = 0
KGGS 150200Z 19007KT 16/12 A2991 RMK A01 T01640120  RH  078%=      5-min Rain = 0
KGGS 150205Z 19007KT 17/12 A2991 RMK A01 T01680120  RH  077%=      5-min Rain = 0
KGGS 150210Z 19007KT 17/12 A2991 RMK A01 T01680120  RH  076%=      5-min Rain = 0
KGGS 150215Z 19007KT 17/12 A2991 RMK A01 T01650119  RH  077%=      5-min Rain = 0
KGGS 150220Z 18007KT 16/12 A2991 RMK A01 T01640119  RH  078%=      5-min Rain = 0
KGGS 150225Z 18008KT 17/12 A2991 RMK A01 T01680122  RH  077%=      5-min Rain = 0
KGGS 150230Z 18008KT 17/12 A2991 RMK A01 T01700123  RH  077%=      5-min Rain = 0
KGGS 150235Z 18008KT 17/12 A2991 RMK A01 T01700123  RH  077%=      5-min Rain = 0
KGGS 150240Z 18009KT 17/13 A2991 RMK A01 T01720126  RH  077%=      5-min Rain = 0
KGGS 150245Z 18009KT 17/13 A2991 RMK A01 T01740128  RH  077%=      5-min Rain = 0
KGGS 150250Z 18008KT 18/13 A2991 RMK A01 T01770130  RH  077%=      5-min Rain = 0
KGGS 150255Z 18008KT 18/13 A2991 RMK A01 T01770131  RH  078%=      5-min Rain = 0
KGGS 150300Z 18008KT 18/13 A2991 RMK A01 T01760132  RH  078%=      5-min Rain = 0
KGGS 150305Z 18008KT 18/13 A2991 RMK A01 T01770133  RH  079%=      5-min Rain = 0
KGGS 150310Z 18008KT 18/13 A2991 RMK A01 T01770134  RH  079%=      5-min Rain = 0
KGGS 150315Z 18008KT 18/13 A2991 RMK A01 T01760134  RH  080%=      5-min Rain = 0
KGGS 150320Z 18008KT 18/14 A2991 RMK A01 T01760135  RH  080%=      5-min Rain = 0
KGGS 150325Z 18008KT 18/14 A2991 RMK A01 T01760136  RH  080%=      5-min Rain = 0
KGGS 150330Z 18008KT 18/14 A2991 RMK A01 T01760136  RH  081%=      5-min Rain = 0
KGGS 150335Z 18008KT 18/14 A2991 RMK A01 T01760137  RH  081%=      5-min Rain = 0
KGGS 150340Z 19008KT 18/14 A2992 RMK A01 T01770138  RH  081%=      5-min Rain = 0
KGGS 150345Z 19007KT 18/14 A2992 RMK A01 T01770138  RH  081%=      5-min Rain = 0
KGGS 150350Z 19007KT 18/14 A2992 RMK A01 T01760139  RH  082%=      5-min Rain = 0
KGGS 150355Z 19006KT 18/14 A2992 RMK A01 T01750139  RH  083%=      5-min Rain = 0
KGGS 150400Z 19008KT 18/14 A2992 RMK A01 T01750139  RH  083%=      5-min Rain = 0
KGGS 150405Z 19007KT 18/14 A2992 RMK A01 T01760140  RH  083%=      5-min Rain = 0
KGGS 150410Z 20008KT 18/14 A2992 RMK A01 T01760141  RH  083%=      5-min Rain = 0
KGGS 150415Z 20008KT 18/14 A2992 RMK A01 T01750141  RH  084%=      5-min Rain = 0
KGGS 150420Z 20008KT 17/14 A2992 RMK A01 T01730140  RH  084%=      5-min Rain = 0
KGGS 150425Z 20008KT 17/14 A2992 RMK A01 T01730141  RH  085%=      5-min Rain = 0
KGGS 150430Z 20008KT 17/14 A2992 RMK A01 T01710140  RH  085%=      5-min Rain = 0
KGGS 150435Z 20009G14KT 17/14 A2992 RMK A01 T01710140  RH  086%=      5-min Rain = 0
KGGS 150440Z 20008KT 17/14 A2992 RMK A01 T01690139  RH  086%=      5-min Rain = 0
KGGS 150445Z 20008KT 17/14 A2992 RMK A01 T01680139  RH  087%=      5-min Rain = 0
KGGS 150450Z 20008KT 17/14 A2992 RMK A01 T01670139  RH  087%=      5-min Rain = 0
KGGS 150455Z 20008KT 17/14 A2992 RMK A01 T01660139  RH  088%=      5-min Rain = 0
KGGS 150500Z 20009KT 17/14 A2992 RMK A01 T01660139  RH  088%=      5-min Rain = 0
KGGS 150505Z 19007KT 17/14 A2992 RMK A01 T01650139  RH  088%=      5-min Rain = 0
KGGS 150510Z 19006KT 16/14 A2992 RMK A01 T01640139  RH  088%=      5-min Rain = 0
KGGS 150515Z 20008KT 16/14 A2992 RMK A01 T01630138  RH  089%=      5-min Rain = 0
KGGS 150520Z 20009KT 16/14 A2992 RMK A01 T01620138  RH  089%=      5-min Rain = 0
KGGS 150525Z 21008KT 16/14 A2992 RMK A01 T01620139  RH  090%=      5-min Rain = 0
KGGS 150530Z 21008KT 16/14 A2992 RMK A01 T01620139  RH  090%=      5-min Rain = 0
KGGS 150535Z 20008KT 16/14 A2992 RMK A01 T01610139  RH  090%=      5-min Rain = 0
KGGS 150540Z 20007KT 16/14 A2992 RMK A01 T01610138  RH  090%=      5-min Rain = 0
KGGS 150545Z 19008KT 16/14 A2992 RMK A01 T01590138  RH  091%=      5-min Rain = 0
KGGS 150550Z 19008KT 16/14 A2992 RMK A01 T01580137  RH  091%=      5-min Rain = 0
KGGS 150555Z 17007KT 16/14 A2992 RMK A01 T01580137  RH  091%=      5-min Rain = 0
KGGS 150600Z 18007KT 16/14 A2993 RMK A01 T01550135  RH  092%=      5-min Rain = 0

Page generated in 0.0214 seconds.